Time;durP1;ratioP1;P1;durP2;ratioP2;P2;SDS_P1;SDS_P2;PMS_P1;PMS_P2;Temp;Humidity;BMP_temperature;BMP_pressure;BME280_temperature;BME280_humidity;BME280_pressure;Samples;Min_cycle;Max_cycle;Signal;HPM_P1;HPM_P2
2023/05/04 00:00:59;;;;;;;8.32;3.90;;;10.40;99.30;;;;;;4888866;29;20041;-88
2023/05/04 00:03:25;;;;;;;7.38;3.47;;;10.40;99.20;;;;;;4874455;29;20048;-88
2023/05/04 00:05:50;;;;;;;8.05;3.40;;;10.30;99.20;;;;;;4880454;29;20067;-88
2023/05/04 00:08:16;;;;;;;8.07;3.42;;;10.30;99.10;;;;;;4887805;29;20390;-88
2023/05/04 00:10:42;;;;;;;9.38;3.83;;;10.20;99.00;;;;;;4862181;29;20051;-88
2023/05/04 00:13:07;;;;;;;7.10;3.58;;;10.20;99.10;;;;;;4885443;29;20056;-88
2023/05/04 00:15:33;;;;;;;7.68;3.45;;;10.20;99.30;;;;;;4890326;29;20037;-88
2023/05/04 00:17:58;;;;;;;8.50;3.88;;;10.20;99.30;;;;;;4867212;29;20044;-88
2023/05/04 00:20:24;;;;;;;8.43;3.83;;;10.10;99.30;;;;;;4897976;29;20048;-88
2023/05/04 00:22:50;;;;;;;9.13;3.60;;;10.10;99.30;;;;;;4870920;29;20416;-88
2023/05/04 00:25:15;;;;;;;7.25;3.70;;;10.10;98.80;;;;;;4897898;29;20044;-88
2023/05/04 00:27:41;;;;;;;9.02;3.80;;;10.10;98.80;;;;;;4863401;29;20084;-88
2023/05/04 00:30:07;;;;;;;6.82;3.60;;;10.00;98.90;;;;;;4861502;29;20057;-87
2023/05/04 00:32:33;;;;;;;7.88;3.67;;;10.00;99.20;;;;;;4872603;29;20084;-87
2023/05/04 00:34:58;;;;;;;7.50;3.60;;;9.90;99.20;;;;;;4866276;29;20084;-88
2023/05/04 00:37:24;;;;;;;10.10;3.88;;;9.90;99.20;;;;;;4870750;29;20556;-89
2023/05/04 00:39:50;;;;;;;6.40;3.63;;;9.90;99.20;;;;;;4878871;29;20049;-87
2023/05/04 00:42:16;;;;;;;9.68;4.13;;;9.90;99.20;;;;;;4862700;29;20057;-88
2023/05/04 00:44:43;;;;;;;8.18;4.00;;;9.80;99.30;;;;;;4862084;29;20133;-87
2023/05/04 00:47:09;;;;;;;9.20;3.90;;;9.80;99.30;;;;;;4862458;29;20053;-86
2023/05/04 00:49:35;;;;;;;9.80;4.20;;;9.80;99.10;;;;;;4860648;29;20512;-87
2023/05/04 00:52:02;;;;;;;8.43;4.07;;;9.70;99.20;;;;;;4861962;29;20135;-89
2023/05/04 00:54:29;;;;;;;8.68;3.50;;;9.70;99.30;;;;;;4876707;29;20193;-87
2023/05/04 00:56:55;;;;;;;8.32;4.00;;;9.70;98.90;;;;;;4866439;29;20068;-87
2023/05/04 00:59:21;;;;;;;8.20;4.40;;;9.70;98.90;;;;;;4878500;29;20056;-87
2023/05/04 01:01:46;;;;;;;8.40;4.43;;;9.60;99.10;;;;;;4863203;29;20226;-87
2023/05/04 01:04:13;;;;;;;6.35;3.85;;;9.60;99.10;;;;;;4862177;29;20045;-87
2023/05/04 01:07:10;;;;;;;7.05;4.15;;;9.60;99.30;;;;;;4863996;29;20101;-87
2023/05/04 01:09:55;;;;;;;8.90;4.20;;;9.60;99.40;;;;;;4863713;29;20059;-86
2023/05/04 01:12:37;;;;;;;9.65;4.20;;;9.50;99.40;;;;;;4880061;29;20159;-87
2023/05/04 01:15:04;;;;;;;8.57;4.28;;;9.50;99.40;;;;;;4863786;29;20048;-87
2023/05/04 01:17:30;;;;;;;9.25;4.38;;;9.50;99.60;;;;;;4884031;29;20223;-87
2023/05/04 01:19:55;;;;;;;8.30;3.90;;;9.50;99.70;;;;;;4888803;29;20522;-88
2023/05/04 01:22:22;;;;;;;12.07;4.50;;;9.50;99.80;;;;;;4882582;29;20051;-88
2023/05/04 01:24:48;;;;;;;7.82;4.22;;;9.40;99.90;;;;;;4882132;29;20053;-88
2023/05/04 01:27:38;;;;;;;8.35;4.30;;;9.40;99.90;;;;;;4882928;29;20545;-87
2023/05/04 01:30:07;;;;;;;7.85;4.40;;;9.40;99.90;;;;;;4890463;29;20059;-87
2023/05/04 01:32:35;;;;;;;7.00;4.15;;;9.40;99.90;;;;;;4847160;29;20057;-87
2023/05/04 01:35:01;;;;;;;8.27;3.90;;;9.40;99.90;;;;;;4883880;29;20052;-88
2023/05/04 01:37:27;;;;;;;7.88;4.05;;;9.40;99.90;;;;;;4883743;29;20056;-89
2023/05/04 01:39:52;;;;;;;7.70;4.07;;;9.40;99.70;;;;;;4881851;29;20113;-89
2023/05/04 01:42:18;;;;;;;8.43;4.50;;;9.30;99.90;;;;;;4869203;29;20041;-88
2023/05/04 01:44:44;;;;;;;8.07;4.45;;;9.30;99.90;;;;;;4867964;29;20486;-88
2023/05/04 01:47:10;;;;;;;8.57;4.22;;;9.30;99.90;;;;;;4879417;29;20040;-87
2023/05/04 01:49:36;;;;;;;7.43;4.07;;;9.30;99.90;;;;;;4898490;29;20095;-88
2023/05/04 01:52:02;;;;;;;8.90;4.45;;;9.30;99.80;;;;;;4883466;29;20461;-88
2023/05/04 01:54:28;;;;;;;10.23;4.40;;;9.30;99.80;;;;;;4870602;29;20052;-88
2023/05/04 01:56:53;;;;;;;8.02;4.32;;;9.20;99.90;;;;;;4864436;29;20049;-87
2023/05/04 01:59:19;;;;;;;9.50;4.50;;;9.20;99.90;;;;;;4874669;29;20489;-86
2023/05/04 02:01:45;;;;;;;9.05;4.45;;;9.10;99.60;;;;;;4870146;29;20053;-88
2023/05/04 02:04:10;;;;;;;9.38;4.22;;;9.10;99.30;;;;;;4872954;29;20459;-88
2023/05/04 02:06:36;;;;;;;9.73;4.60;;;9.10;99.30;;;;;;4882055;29;20095;-87
2023/05/04 02:09:02;;;;;;;8.27;4.10;;;9.00;99.40;;;;;;4893608;29;20080;-87
2023/05/04 02:11:28;;;;;;;8.57;4.65;;;9.00;99.50;;;;;;4864844;29;20048;-88
2023/05/04 02:13:53;;;;;;;7.93;4.03;;;8.90;99.40;;;;;;4891862;29;20438;-88
2023/05/04 02:16:19;;;;;;;7.70;4.70;;;8.90;99.40;;;;;;4890012;29;20045;-87
2023/05/04 02:18:45;;;;;;;8.98;4.70;;;8.90;99.40;;;;;;4884643;29;21006;-87
2023/05/04 02:21:11;;;;;;;9.05;4.47;;;8.90;99.60;;;;;;4863733;29;20402;-87
2023/05/04 02:23:37;;;;;;;8.68;4.85;;;8.80;99.60;;;;;;4864113;29;20056;-88
2023/05/04 02:26:03;;;;;;;9.98;4.60;;;8.80;99.50;;;;;;4882929;29;20040;-88
2023/05/04 02:28:28;;;;;;;9.45;4.88;;;8.70;99.30;;;;;;4873813;29;20045;-87
2023/05/04 02:30:54;;;;;;;10.13;4.68;;;8.70;99.40;;;;;;4874609;29;20053;-87
2023/05/04 02:33:19;;;;;;;8.38;4.82;;;8.70;99.40;;;;;;4864018;29;20185;-88
2023/05/04 02:35:45;;;;;;;8.95;5.13;;;8.70;99.30;;;;;;4894587;29;20068;-88
2023/05/04 02:38:11;;;;;;;8.35;4.50;;;8.60;99.50;;;;;;4882681;29;20059;-87
2023/05/04 02:40:36;;;;;;;9.00;4.65;;;8.60;99.70;;;;;;4868365;29;20048;-87
2023/05/04 02:43:02;;;;;;;8.57;4.95;;;8.60;99.80;;;;;;4864425;29;20051;-87
2023/05/04 02:45:27;;;;;;;9.18;5.15;;;8.60;99.90;;;;;;4872916;29;20133;-87
2023/05/04 02:47:53;;;;;;;10.98;5.40;;;8.50;99.90;;;;;;4863222;29;20053;-88
2023/05/04 02:50:19;;;;;;;9.43;5.10;;;8.50;99.90;;;;;;4880739;29;20104;-87
2023/05/04 02:52:44;;;;;;;10.00;5.65;;;8.50;99.90;;;;;;4863363;29;20049;-87
2023/05/04 02:55:10;;;;;;;8.98;5.50;;;8.50;99.90;;;;;;4888239;29;20101;-88
2023/05/04 02:57:35;;;;;;;8.73;5.28;;;8.50;99.90;;;;;;4896408;29;20043;-87
2023/05/04 03:00:01;;;;;;;8.27;5.20;;;8.50;99.90;;;;;;4889272;29;20044;-87
2023/05/04 03:02:26;;;;;;;8.45;5.00;;;8.50;99.90;;;;;;4898541;29;20053;-88
2023/05/04 03:04:52;;;;;;;9.32;5.40;;;8.40;99.90;;;;;;4890929;29;20466;-88
2023/05/04 03:07:17;;;;;;;12.82;6.07;;;8.40;99.90;;;;;;4863356;29;20048;-88
2023/05/04 03:09:43;;;;;;;10.18;5.30;;;8.40;99.90;;;;;;4863200;29;20072;-87
2023/05/04 03:12:09;;;;;;;11.05;5.90;;;8.40;99.90;;;;;;4880815;29;20397;-87
2023/05/04 03:14:34;;;;;;;9.77;5.45;;;8.40;99.90;;;;;;4894527;29;20033;-88
2023/05/04 03:17:00;;;;;;;9.27;5.93;;;8.40;99.90;;;;;;4895351;29;20144;-88
2023/05/04 03:19:26;;;;;;;11.45;5.72;;;8.40;99.90;;;;;;4881566;29;20049;-87
2023/05/04 03:21:51;;;;;;;11.80;6.28;;;8.30;99.90;;;;;;4879448;29;20045;-88
2023/05/04 03:24:17;;;;;;;9.45;5.80;;;8.30;99.90;;;;;;4862018;29;20059;-87
2023/05/04 03:26:44;;;;;;;9.52;6.03;;;8.30;99.90;;;;;;4879794;29;20060;-88
2023/05/04 03:29:09;;;;;;;9.20;5.93;;;8.30;99.90;;;;;;4883537;29;20052;-87
2023/05/04 03:31:35;;;;;;;9.40;5.82;;;8.30;99.90;;;;;;4873168;29;20171;-88
2023/05/04 03:34:02;;;;;;;8.63;5.57;;;8.30;99.90;;;;;;4898439;29;20055;-88
2023/05/04 03:36:28;;;;;;;10.63;6.20;;;8.30;99.90;;;;;;4866698;29;20053;-88
2023/05/04 03:38:53;;;;;;;8.63;5.55;;;8.30;99.90;;;;;;4861993;29;20144;-87
2023/05/04 03:41:19;;;;;;;10.05;5.60;;;8.30;99.90;;;;;;4891433;29;20088;-87
2023/05/04 03:43:45;;;;;;;10.18;5.90;;;8.30;99.90;;;;;;4871252;29;20061;-87
2023/05/04 03:46:10;;;;;;;9.10;6.05;;;8.20;99.90;;;;;;4864139;29;20076;-88
2023/05/04 03:48:36;;;;;;;8.05;5.57;;;8.20;99.90;;;;;;4877510;29;20064;-88
2023/05/04 03:51:02;;;;;;;9.68;5.75;;;8.20;99.90;;;;;;4890912;29;20064;-87
2023/05/04 03:53:28;;;;;;;10.90;5.93;;;8.20;99.90;;;;;;4878685;29;20045;-87
2023/05/04 03:55:54;;;;;;;10.27;5.97;;;8.20;99.90;;;;;;4884660;29;20044;-87
2023/05/04 03:58:20;;;;;;;10.32;6.18;;;8.20;99.90;;;;;;4893200;29;20132;-88
2023/05/04 04:00:46;;;;;;;11.88;6.80;;;8.20;99.90;;;;;;4870485;29;20382;-87
2023/05/04 04:03:11;;;;;;;11.63;6.60;;;8.10;99.90;;;;;;4881617;29;20430;-88
2023/05/04 04:05:37;;;;;;;10.40;6.20;;;8.10;99.90;;;;;;4878628;29;20041;-88
2023/05/04 04:08:02;;;;;;;9.32;6.28;;;8.10;99.90;;;;;;4862083;29;20052;-87
2023/05/04 04:10:29;;;;;;;11.48;6.45;;;8.10;99.90;;;;;;4887139;29;20041;-88
2023/05/04 04:12:55;;;;;;;12.02;6.40;;;8.10;99.90;;;;;;4861966;29;20090;-86
2023/05/04 04:15:20;;;;;;;12.15;6.60;;;8.10;99.90;;;;;;4894819;29;20137;-87
2023/05/04 04:17:46;;;;;;;10.02;6.25;;;8.10;99.90;;;;;;4895335;29;20040;-88
2023/05/04 04:20:12;;;;;;;10.57;6.13;;;8.10;99.90;;;;;;4880408;29;20040;-88
2023/05/04 04:22:38;;;;;;;11.63;6.55;;;8.00;99.90;;;;;;4864963;29;20135;-87
2023/05/04 04:25:04;;;;;;;9.18;6.47;;;8.00;99.90;;;;;;4862146;29;20137;-87
2023/05/04 04:27:29;;;;;;;11.68;6.22;;;8.00;99.90;;;;;;4872659;29;20135;-86
2023/05/04 04:29:56;;;;;;;12.18;7.00;;;8.00;99.90;;;;;;4875176;29;20036;-88
2023/05/04 04:32:22;;;;;;;10.75;6.30;;;8.00;99.80;;;;;;4873052;29;20048;-89
2023/05/04 04:34:47;;;;;;;9.32;6.15;;;8.00;99.90;;;;;;4880131;29;20517;-87
2023/05/04 04:37:13;;;;;;;9.98;6.80;;;8.00;99.80;;;;;;4883681;29;20041;-88
2023/05/04 04:39:38;;;;;;;12.65;7.00;;;8.00;99.80;;;;;;4880413;29;20049;-87
2023/05/04 04:42:04;;;;;;;9.43;6.22;;;8.00;99.60;;;;;;4880343;29;20120;-87
2023/05/04 04:44:29;;;;;;;12.25;7.25;;;7.90;99.60;;;;;;4862270;29;20044;-88
2023/05/04 04:46:55;;;;;;;11.80;7.43;;;7.90;99.70;;;;;;4885829;29;20083;-88
2023/05/04 04:49:21;;;;;;;10.85;6.80;;;7.90;99.70;;;;;;4880377;29;20455;-88
2023/05/04 04:51:47;;;;;;;11.70;7.30;;;7.90;99.80;;;;;;4865462;29;20490;-88
2023/05/04 04:54:13;;;;;;;11.40;6.90;;;7.90;99.90;;;;;;4881266;29;20044;-88
2023/05/04 04:56:39;;;;;;;16.52;6.82;;;7.90;99.90;;;;;;4863242;29;20102;-87
2023/05/04 04:59:05;;;;;;;10.15;6.55;;;7.90;99.90;;;;;;4864471;29;20045;-88
2023/05/04 05:01:32;;;;;;;11.82;7.30;;;7.90;99.90;;;;;;4880924;29;20141;-87
2023/05/04 05:03:58;;;;;;;11.30;7.30;;;7.90;99.90;;;;;;4863237;29;20128;-87
2023/05/04 05:06:24;;;;;;;14.23;7.40;;;7.90;99.90;;;;;;4863931;29;20493;-87
2023/05/04 05:08:50;;;;;;;12.35;7.18;;;7.90;99.80;;;;;;4860769;29;20132;-88
2023/05/04 05:11:16;;;;;;;10.80;7.22;;;7.90;99.70;;;;;;4863779;29;20126;-88
2023/05/04 05:13:42;;;;;;;12.57;7.57;;;7.90;99.80;;;;;;4863590;29;20142;-87
2023/05/04 05:16:08;;;;;;;13.68;7.50;;;7.90;99.90;;;;;;4862218;29;20090;-87
2023/05/04 05:18:33;;;;;;;9.82;6.57;;;8.00;99.90;;;;;;4861961;29;20041;-87
2023/05/04 05:20:59;;;;;;;13.18;7.75;;;8.00;99.90;;;;;;4863917;29;20072;-87
2023/05/04 05:23:25;;;;;;;11.77;7.30;;;7.90;99.90;;;;;;4880905;29;20052;-87
2023/05/04 05:25:51;;;;;;;13.15;7.45;;;8.00;99.90;;;;;;4880398;29;20430;-87
2023/05/04 05:28:17;;;;;;;11.52;7.55;;;8.00;99.90;;;;;;4864244;29;20049;-86
2023/05/04 05:30:43;;;;;;;11.05;6.90;;;7.90;99.90;;;;;;4859215;29;20060;-87
2023/05/04 05:33:09;;;;;;;9.80;7.55;;;7.90;99.90;;;;;;4863566;29;20045;-87
2023/05/04 05:35:34;;;;;;;10.88;7.15;;;7.90;99.90;;;;;;4863770;29;20044;-87
2023/05/04 05:38:01;;;;;;;11.98;6.85;;;8.00;99.90;;;;;;4863958;29;20081;-86
2023/05/04 05:40:27;;;;;;;12.98;7.82;;;8.00;99.90;;;;;;4863680;29;20041;-87
2023/05/04 05:42:52;;;;;;;12.75;7.70;;;8.00;99.90;;;;;;4880490;29;20108;-87
2023/05/04 05:45:18;;;;;;;11.32;7.07;;;8.00;99.90;;;;;;4863098;29;20045;-87
2023/05/04 05:47:43;;;;;;;12.63;7.38;;;8.00;99.90;;;;;;4862265;29;20077;-87
2023/05/04 05:50:11;;;;;;;10.65;7.30;;;8.00;99.90;;;;;;4863184;29;20056;-85
2023/05/04 05:52:36;;;;;;;13.38;7.45;;;8.00;99.90;;;;;;4862300;29;20127;-85
2023/05/04 05:55:02;;;;;;;11.27;6.95;;;8.00;99.90;;;;;;4863414;29;20164;-86
2023/05/04 05:57:28;;;;;;;11.80;7.47;;;8.10;99.90;;;;;;4880332;29;20052;-85
2023/05/04 05:59:55;;;;;;;12.02;7.45;;;8.10;99.90;;;;;;4862656;29;20064;-85
2023/05/04 06:02:21;;;;;;;13.23;7.75;;;8.10;99.90;;;;;;4882100;29;20116;-86
2023/05/04 06:04:46;;;;;;;11.63;7.40;;;8.10;99.90;;;;;;4873451;29;20181;-87
2023/05/04 06:07:14;;;;;;;12.77;7.60;;;8.10;99.90;;;;;;4880877;29;20397;-86
2023/05/04 06:09:40;;;;;;;12.95;7.60;;;8.20;99.90;;;;;;4884563;29;20404;-86
2023/05/04 06:12:11;;;;;;;11.52;7.18;;;8.20;99.90;;;;;;4871884;29;20041;-85
2023/05/04 06:14:37;;;;;;;13.55;7.57;;;8.20;99.90;;;;;;4884735;29;20072;-88
2023/05/04 06:17:03;;;;;;;11.48;7.45;;;8.20;99.90;;;;;;4873137;29;20037;-85
2023/05/04 06:19:28;;;;;;;13.98;8.15;;;8.20;99.90;;;;;;4874343;29;20481;-87
2023/05/04 06:21:54;;;;;;;14.77;7.70;;;8.30;99.90;;;;;;4884953;29;20450;-87
2023/05/04 06:24:21;;;;;;;13.57;8.45;;;8.30;99.90;;;;;;4880187;29;20049;-88
2023/05/04 06:26:47;;;;;;;14.48;7.93;;;8.30;99.90;;;;;;4873451;29;20121;-87
2023/05/04 06:29:12;;;;;;;8.98;6.80;;;8.40;99.90;;;;;;4879060;29;20493;-90
2023/05/04 06:31:38;;;;;;;12.77;7.45;;;8.40;99.90;;;;;;4901981;29;20461;-95
2023/05/04 06:34:04;;;;;;;11.05;7.20;;;8.50;99.90;;;;;;4884780;29;20100;-93
2023/05/04 06:36:30;;;;;;;13.93;7.28;;;8.50;99.90;;;;;;4884927;29;20051;-92
2023/05/04 06:38:57;;;;;;;13.23;7.30;;;8.60;99.90;;;;;;4881389;29;20053;-93
2023/05/04 06:41:23;;;;;;;15.45;7.60;;;8.60;99.90;;;;;;4885617;29;20036;-96
2023/05/04 06:43:48;;;;;;;13.90;7.78;;;8.70;99.90;;;;;;4866253;29;20057;-93
2023/05/04 06:46:15;;;;;;;12.10;7.72;;;8.70;99.90;;;;;;4866612;29;20053;-90
2023/05/04 06:48:41;;;;;;;12.43;7.88;;;8.80;99.90;;;;;;4881344;29;20052;-93
2023/05/04 06:51:06;;;;;;;13.15;7.80;;;8.80;99.90;;;;;;4884487;29;20048;-94
2023/05/04 06:53:32;;;;;;;11.18;6.78;;;8.80;99.90;;;;;;4884303;29;20045;-92
2023/05/04 06:55:58;;;;;;;11.57;7.38;;;8.90;99.90;;;;;;4895225;29;20072;-95
2023/05/04 06:58:24;;;;;;;11.00;6.95;;;8.90;99.90;;;;;;4871422;29;20045;-95
2023/05/04 07:00:50;;;;;;;12.70;7.28;;;9.00;99.80;;;;;;4883203;29;20043;-93
2023/05/04 07:03:16;;;;;;;11.40;7.38;;;9.00;99.80;;;;;;4869205;29;20131;-93
2023/05/04 07:05:43;;;;;;;11.88;7.45;;;9.10;99.90;;;;;;4865877;29;20466;-95
2023/05/04 07:08:09;;;;;;;13.98;7.78;;;9.10;99.80;;;;;;4866033;29;20088;-94
2023/05/04 07:10:35;;;;;;;11.63;7.05;;;9.10;99.60;;;;;;4884880;29;20043;-92
2023/05/04 07:13:00;;;;;;;15.65;7.50;;;9.20;99.40;;;;;;4878336;29;20056;-95
2023/05/04 07:15:26;;;;;;;13.02;7.35;;;9.20;99.50;;;;;;4894022;29;20045;-93
2023/05/04 07:17:52;;;;;;;12.15;7.40;;;9.30;99.40;;;;;;4891873;29;20410;-96
2023/05/04 07:20:19;;;;;;;11.73;6.78;;;9.30;99.40;;;;;;4885072;29;20052;-95
2023/05/04 07:22:45;;;;;;;12.80;6.65;;;9.40;99.50;;;;;;4884021;29;20552;-94
2023/05/04 07:25:10;;;;;;;10.88;6.65;;;9.50;99.50;;;;;;4891586;29;20052;-94
2023/05/04 07:27:36;;;;;;;11.75;6.75;;;9.50;99.50;;;;;;4884105;29;20048;-95
2023/05/04 07:30:05;;;;;;;12.27;7.70;;;9.50;99.40;;;;;;4868015;29;20045;-95
2023/05/04 07:32:31;;;;;;;11.38;7.40;;;9.60;99.50;;;;;;4883917;29;20081;-94
2023/05/04 07:34:56;;;;;;;10.20;6.32;;;9.70;99.40;;;;;;4898311;29;20064;-95
2023/05/04 07:37:22;;;;;;;12.93;7.50;;;9.70;99.50;;;;;;4865121;29;20049;-94
2023/05/04 07:39:48;;;;;;;11.20;6.68;;;9.80;99.50;;;;;;4865551;29;20041;-95
2023/05/04 07:42:14;;;;;;;11.25;7.03;;;9.80;99.30;;;;;;4874252;29;20131;-95
2023/05/04 07:44:40;;;;;;;13.55;7.10;;;9.90;99.20;;;;;;4883488;29;20059;-95
2023/05/04 07:47:06;;;;;;;12.65;6.70;;;10.00;99.10;;;;;;4879267;29;20041;-89
2023/05/04 07:49:32;;;;;;;11.73;6.43;;;10.10;99.00;;;;;;4859461;29;20099;-88
2023/05/04 07:51:58;;;;;;;10.43;6.65;;;10.20;99.00;;;;;;4879533;29;20053;-92
2023/05/04 07:54:24;;;;;;;12.10;6.72;;;10.20;99.10;;;;;;4877277;29;20056;-93
2023/05/04 07:56:50;;;;;;;11.23;6.80;;;10.30;99.20;;;;;;4879437;29;20081;-90
2023/05/04 07:59:18;;;;;;;9.48;6.47;;;10.30;99.00;;;;;;4899271;29;20051;-89
2023/05/04 08:01:45;;;;;;;10.45;6.53;;;10.40;99.00;;;;;;4871635;29;20490;-89
2023/05/04 08:04:10;;;;;;;11.90;6.55;;;10.50;99.10;;;;;;4885691;29;20128;-88
2023/05/04 08:06:38;;;;;;;9.90;6.45;;;10.60;98.50;;;;;;4893074;29;20080;-89
2023/05/04 08:09:07;;;;;;;12.95;6.68;;;10.70;98.30;;;;;;4878653;29;20055;-88
2023/05/04 08:11:33;;;;;;;9.90;6.00;;;10.80;98.30;;;;;;4876473;29;20454;-90
2023/05/04 08:13:59;;;;;;;12.02;6.05;;;10.80;98.50;;;;;;4873743;29;20491;-86
2023/05/04 08:16:26;;;;;;;10.65;5.85;;;10.90;98.60;;;;;;4878646;29;20053;-89
2023/05/04 08:18:52;;;;;;;9.82;6.45;;;11.00;98.60;;;;;;4879328;29;20056;-87
2023/05/04 08:21:18;;;;;;;12.60;6.30;;;11.10;98.70;;;;;;4862031;29;20139;-88
2023/05/04 08:23:43;;;;;;;10.57;6.57;;;11.10;98.50;;;;;;4862585;29;20040;-87
2023/05/04 08:26:09;;;;;;;11.13;5.97;;;11.20;98.50;;;;;;4862343;29;20063;-87
2023/05/04 08:28:39;;;;;;;10.93;6.13;;;11.40;98.60;;;;;;4862543;29;20041;-87
2023/05/04 08:31:05;;;;;;;9.73;5.72;;;11.50;98.60;;;;;;4879254;29;20053;-87
2023/05/04 08:33:31;;;;;;;11.50;6.60;;;11.50;98.50;;;;;;4861670;29;20086;-87
2023/05/04 08:35:57;;;;;;;10.02;5.82;;;11.60;98.40;;;;;;4862520;29;20041;-88
2023/05/04 08:38:23;;;;;;;12.00;5.68;;;11.70;98.20;;;;;;4879195;29;20052;-87
2023/05/04 08:40:48;;;;;;;12.32;5.75;;;11.80;98.10;;;;;;4861687;29;20077;-88
2023/05/04 08:43:15;;;;;;;13.43;6.05;;;11.80;97.90;;;;;;4879298;29;20072;-88
2023/05/04 08:45:41;;;;;;;8.88;5.68;;;11.90;97.90;;;;;;4862519;29;20045;-87
2023/05/04 08:48:07;;;;;;;9.75;5.38;;;12.10;97.60;;;;;;4861709;29;20125;-88
2023/05/04 08:50:36;;;;;;;12.60;5.35;;;12.10;97.30;;;;;;4878797;29;20075;-88
2023/05/04 08:53:05;;;;;;;8.35;5.32;;;12.20;96.80;;;;;;4862163;29;20049;-87
2023/05/04 08:55:34;;;;;;;10.43;5.70;;;12.30;97.00;;;;;;4862108;29;20096;-89
2023/05/04 08:58:03;;;;;;;8.45;5.07;;;12.40;97.20;;;;;;4879240;29;20045;-88
2023/05/04 09:00:29;;;;;;;10.05;5.43;;;12.50;97.00;;;;;;4862105;29;20042;-87
2023/05/04 09:02:58;;;;;;;9.68;5.20;;;12.60;97.20;;;;;;4877971;29;20045;-88
2023/05/04 09:05:25;;;;;;;13.10;5.53;;;12.70;97.00;;;;;;4862326;29;20507;-89
2023/05/04 09:07:51;;;;;;;11.93;5.07;;;12.70;96.80;;;;;;4877882;29;20049;-90
2023/05/04 09:10:17;;;;;;;10.65;5.18;;;12.80;96.00;;;;;;4862113;29;20049;-88
2023/05/04 09:12:43;;;;;;;9.75;5.13;;;12.90;95.80;;;;;;4878689;29;20045;-89
2023/05/04 09:15:19;;;;;;;9.98;5.40;;;13.00;95.70;;;;;;4878905;29;20049;-89
2023/05/04 09:18:17;;;;;;;8.98;5.32;;;13.10;95.70;;;;;;4878002;29;20056;-88
2023/05/04 09:20:45;;;;;;;10.57;5.22;;;13.20;96.00;;;;;;4857001;29;20493;-89
2023/05/04 09:23:12;;;;;;;9.93;5.50;;;13.30;95.80;;;;;;4880909;29;20037;-88
2023/05/04 09:25:51;;;;;;;8.77;5.05;;;13.40;95.60;;;;;;4865320;29;20156;-88
2023/05/04 09:28:18;;;;;;;10.48;4.47;;;13.50;95.80;;;;;;4865575;29;20047;-88
2023/05/04 09:30:46;;;;;;;8.30;5.22;;;13.60;95.30;;;;;;4880762;29;20060;-88
2023/05/04 09:33:12;;;;;;;10.27;4.80;;;13.70;95.60;;;;;;4882067;29;20097;-88
2023/05/04 09:35:40;;;;;;;7.57;4.90;;;13.70;95.30;;;;;;4865000;29;20071;-88
2023/05/04 09:38:06;;;;;;;10.65;5.30;;;13.80;95.60;;;;;;4881362;29;20162;-87
2023/05/04 09:40:37;;;;;;;8.10;4.80;;;13.90;96.00;;;;;;4865035;29;20105;-89
2023/05/04 09:43:03;;;;;;;9.35;5.03;;;14.00;95.90;;;;;;4881745;29;20097;-88
2023/05/04 09:45:46;;;;;;;8.48;5.22;;;14.10;95.60;;;;;;4864505;29;20446;-88
2023/05/04 09:48:15;;;;;;;11.33;5.30;;;14.20;95.60;;;;;;4881755;29;20053;-88
2023/05/04 09:50:47;;;;;;;11.68;4.85;;;14.30;95.30;;;;;;4880908;29;20045;-86
2023/05/04 09:53:15;;;;;;;10.05;5.43;;;14.40;95.90;;;;;;4865120;29;20049;-89
2023/05/04 09:55:45;;;;;;;10.30;4.82;;;14.50;96.30;;;;;;4864613;29;20045;-88
2023/05/04 09:58:15;;;;;;;12.38;4.80;;;14.60;95.60;;;;;;4882857;29;20084;-87
2023/05/04 10:00:42;;;;;;;8.07;4.78;;;14.60;95.30;;;;;;4881446;29;20045;-86
2023/05/04 10:03:08;;;;;;;10.07;4.80;;;14.70;95.40;;;;;;4870525;29;20052;-88
2023/05/04 10:05:37;;;;;;;11.60;4.40;;;14.80;94.80;;;;;;4880568;29;20068;-89
2023/05/04 10:08:04;;;;;;;10.05;4.32;;;14.90;94.30;;;;;;4865075;29;20406;-87
2023/05/04 10:10:30;;;;;;;9.18;4.32;;;15.00;94.20;;;;;;4864701;29;20104;-87
2023/05/04 10:12:55;;;;;;;10.00;4.53;;;15.10;94.20;;;;;;4863843;29;20144;-88
2023/05/04 10:15:22;;;;;;;9.43;4.95;;;15.30;94.00;;;;;;4864773;29;20049;-88
2023/05/04 10:18:09;;;;;;;8.93;4.40;;;15.30;94.50;;;;;;4864357;29;20387;-87
2023/05/04 10:20:54;;;;;;;9.10;4.70;;;15.50;94.30;;;;;;4880303;29;20414;-86
2023/05/04 10:23:58;;;;;;;7.88;4.28;;;15.50;94.50;;;;;;4864752;29;20389;-86
2023/05/04 10:26:58;;;;;;;8.98;4.63;;;15.60;94.80;;;;;;4863958;29;20109;-87
2023/05/04 10:29:31;;;;;;;12.48;4.18;;;15.70;94.90;;;;;;4881153;29;20048;-87
2023/05/04 10:31:58;;;;;;;10.43;4.68;;;15.80;93.70;;;;;;4864192;29;20136;-86
2023/05/04 10:34:25;;;;;;;8.60;4.60;;;15.90;93.90;;;;;;4863370;29;20057;-88
2023/05/04 10:36:51;;;;;;;11.40;4.78;;;16.00;94.30;;;;;;4863787;29;20049;-88
2023/05/04 10:39:21;;;;;;;12.25;4.60;;;16.10;93.20;;;;;;4881023;29;20060;-87
2023/05/04 10:42:04;;;;;;;9.15;4.75;;;16.20;92.30;;;;;;4879997;29;20041;-87
2023/05/04 10:44:36;;;;;;;8.63;4.50;;;16.20;93.10;;;;;;4881000;29;20040;-89
2023/05/04 10:47:06;;;;;;;7.25;4.40;;;16.30;92.70;;;;;;4863223;29;20045;-88
2023/05/04 10:49:34;;;;;;;11.32;4.18;;;16.40;93.70;;;;;;4863824;29;20053;-89
2023/05/04 10:52:16;;;;;;;8.55;3.85;;;16.40;92.90;;;;;;4880825;29;20063;-87
2023/05/04 10:54:42;;;;;;;7.20;4.32;;;16.50;91.20;;;;;;4879744;29;20404;-86
2023/05/04 10:57:15;;;;;;;9.93;4.40;;;16.60;91.90;;;;;;4863750;29;20053;-87
2023/05/04 10:59:42;;;;;;;10.70;5.03;;;16.70;92.20;;;;;;4880397;29;20127;-89
2023/05/04 11:02:08;;;;;;;8.93;4.38;;;16.80;92.90;;;;;;4879713;29;20056;-88
2023/05/04 11:04:34;;;;;;;9.90;4.85;;;16.90;93.00;;;;;;4880282;29;20054;-87
2023/05/04 11:07:05;;;;;;;10.35;4.70;;;16.90;93.40;;;;;;4880342;29;20533;-88
2023/05/04 11:09:40;;;;;;;9.80;4.60;;;17.00;92.70;;;;;;4879633;29;20049;-87
2023/05/04 11:12:06;;;;;;;10.75;4.03;;;17.10;93.40;;;;;;4863801;29;20434;-88
2023/05/04 11:14:36;;;;;;;8.90;4.40;;;17.10;92.40;;;;;;4879738;29;20045;-88
2023/05/04 11:17:13;;;;;;;7.07;3.95;;;17.20;92.40;;;;;;4862852;29;20053;-87
2023/05/04 11:19:49;;;;;;;9.25;4.60;;;17.30;91.90;;;;;;4878521;29;20052;-87
2023/05/04 11:22:16;;;;;;;11.27;4.53;;;17.30;91.10;;;;;;4879394;29;20059;-88
2023/05/04 11:24:43;;;;;;;10.05;4.50;;;17.40;91.30;;;;;;4863097;29;20056;-90
2023/05/04 11:27:27;;;;;;;9.55;4.55;;;17.50;90.30;;;;;;4880029;29;20100;-89
2023/05/04 11:29:56;;;;;;;9.38;3.95;;;17.50;89.20;;;;;;4879250;29;20481;-90
2023/05/04 11:32:31;;;;;;;10.15;3.80;;;17.60;90.00;;;;;;4863604;29;20052;-90
2023/05/04 11:34:57;;;;;;;7.68;4.00;;;17.70;90.20;;;;;;4863215;29;20041;-89
2023/05/04 11:37:22;;;;;;;8.57;3.70;;;17.80;90.90;;;;;;4877353;29;20386;-89
2023/05/04 11:39:48;;;;;;;11.70;3.80;;;17.90;89.90;;;;;;4866889;29;20046;-89
2023/05/04 11:42:15;;;;;;;9.77;3.53;;;17.90;83.80;;;;;;4858390;29;20056;-91
2023/05/04 11:44:41;;;;;;;10.75;4.43;;;17.90;83.60;;;;;;4861115;29;20077;-88
2023/05/04 11:47:07;;;;;;;10.13;4.45;;;18.00;88.20;;;;;;4856244;29;20033;-88
2023/05/04 11:49:33;;;;;;;7.97;3.55;;;18.10;90.50;;;;;;4898137;29;20056;-85
2023/05/04 11:52:08;;;;;;;9.13;4.10;;;18.20;87.90;;;;;;4887496;29;20053;-88
2023/05/04 11:54:34;;;;;;;6.75;4.18;;;18.20;90.50;;;;;;4863926;29;20474;-89
2023/05/04 11:57:02;;;;;;;6.57;4.32;;;18.30;91.80;;;;;;4890688;29;20096;-89
2023/05/04 11:59:29;;;;;;;10.40;3.47;;;18.30;92.50;;;;;;4850117;29;20383;-90
2023/05/04 12:01:55;;;;;;;10.07;3.70;;;18.40;90.20;;;;;;4861074;29;20482;-91
2023/05/04 12:04:21;;;;;;;6.95;3.50;;;18.40;89.80;;;;;;4876015;29;20052;-89
2023/05/04 12:06:46;;;;;;;7.85;3.60;;;18.50;89.50;;;;;;4862800;29;20120;-91
2023/05/04 12:09:12;;;;;;;7.32;3.70;;;18.50;88.60;;;;;;4867866;29;20446;-92
2023/05/04 12:11:39;;;;;;;7.82;3.90;;;18.60;89.50;;;;;;4879171;29;20524;-91
2023/05/04 12:14:08;;;;;;;8.85;3.80;;;18.60;91.00;;;;;;4871959;29;20065;-91
2023/05/04 12:16:34;;;;;;;6.55;4.03;;;18.70;86.10;;;;;;4873972;29;20044;-87
2023/05/04 12:19:45;;;;;;;8.75;3.97;;;18.80;90.30;;;;;;4868769;29;20516;-90
2023/05/04 12:22:34;;;;;;;7.82;3.58;;;18.80;90.70;;;;;;4868758;23;20057;-91
2023/05/04 12:25:13;;;;;;;7.55;3.50;;;18.90;90.20;;;;;;4854043;23;20062;-89
2023/05/04 12:27:57;;;;;;;6.80;3.33;;;19.00;90.00;;;;;;4863537;29;20451;-91
2023/05/04 12:30:23;;;;;;;6.68;3.40;;;19.00;85.50;;;;;;4844299;29;20129;-88
2023/05/04 12:33:08;;;;;;;;;;;;;;;;;;;;;
2023/05/04 12:43:12;;;;;;;8.30;3.65;;;19.30;91.50;;;;;;4859561;29;20084;-90
2023/05/04 12:45:38;;;;;;;7.97;3.42;;;19.30;90.40;;;;;;4848751;29;20056;-92
2023/05/04 12:48:19;;;;;;;;;;;;;;;;;;;;;
2023/05/04 12:50:54;;;;;;;7.20;3.50;;;19.50;91.00;;;;;;4843896;29;20486;-90
2023/05/04 12:53:23;;;;;;;8.70;3.25;;;19.60;90.40;;;;;;4871713;29;20114;-92
2023/05/04 12:55:50;;;;;;;8.50;3.00;;;19.60;87.00;;;;;;4848203;29;20114;-92
2023/05/04 12:58:15;;;;;;;7.25;2.40;;;19.60;80.70;;;;;;4862040;29;20045;-92
2023/05/04 13:00:42;;;;;;;6.88;3.35;;;19.60;79.30;;;;;;4847617;29;20046;-91